createdAt,value
2022-11-22T00:00:42.196Z,9.70
2022-11-22T00:03:09.628Z,9.70
2022-11-22T00:05:37.263Z,9.70
2022-11-22T00:08:05.080Z,9.70
2022-11-22T00:10:32.054Z,9.70
2022-11-22T00:12:58.978Z,9.70
2022-11-22T00:15:25.908Z,9.70
2022-11-22T00:17:52.837Z,9.70
2022-11-22T00:20:19.714Z,9.70
2022-11-22T00:22:46.721Z,11.60
2022-11-22T00:25:15.001Z,10.10
2022-11-22T00:27:42.027Z,9.60
2022-11-22T00:30:09.809Z,11.60
2022-11-22T00:32:36.827Z,9.40
2022-11-22T00:35:04.670Z,9.40
2022-11-22T00:37:31.664Z,9.30
2022-11-22T00:39:58.567Z,9.20
2022-11-22T00:42:25.675Z,9.10
2022-11-22T00:44:52.528Z,9.10
2022-11-22T00:47:19.391Z,9.00
2022-11-22T00:49:46.437Z,10.30
2022-11-22T00:52:13.595Z,8.90
2022-11-22T00:54:40.447Z,8.80
2022-11-22T00:57:07.309Z,8.70
2022-11-22T00:59:34.245Z,8.70
2022-11-22T01:02:01.209Z,10.70
2022-11-22T01:04:28.068Z,10.90
2022-11-22T01:06:54.910Z,10.10
2022-11-22T01:09:24.114Z,8.40
2022-11-22T01:11:51.514Z,8.30
2022-11-22T01:14:19.176Z,8.30
2022-11-22T01:16:47.399Z,8.20
2022-11-22T01:19:14.842Z,8.20
2022-11-22T01:24:09.544Z,8.10
2022-11-22T01:26:38.299Z,8.10
2022-11-22T01:29:05.242Z,6.80
2022-11-22T01:31:32.531Z,8.00
2022-11-22T01:36:27.867Z,8.00
2022-11-22T01:38:55.493Z,8.00
2022-11-22T01:41:23.174Z,7.70
2022-11-22T01:43:50.143Z,8.00
2022-11-22T01:46:39.512Z,7.90
2022-11-22T01:49:23.471Z,8.00
2022-11-22T01:51:56.000Z,8.00
2022-11-22T01:54:27.397Z,7.90
2022-11-22T01:57:03.421Z,7.90
2022-11-22T01:59:35.169Z,8.00
2022-11-22T02:02:04.243Z,10.30
2022-11-22T02:04:32.819Z,7.90
2022-11-22T02:07:13.214Z,8.00
2022-11-22T02:09:43.456Z,8.00
2022-11-22T02:12:13.000Z,8.00
2022-11-22T02:14:41.372Z,8.20
2022-11-22T02:17:08.270Z,8.00
2022-11-22T02:19:49.953Z,9.30
2022-11-22T02:22:41.013Z,8.00
2022-11-22T02:25:36.745Z,8.00
2022-11-22T02:28:12.491Z,10.20
2022-11-22T02:30:41.316Z,8.00
2022-11-22T02:33:09.320Z,8.00
2022-11-22T02:35:36.243Z,8.00
2022-11-22T02:38:13.568Z,8.00
2022-11-22T02:41:03.645Z,8.00
2022-11-22T02:43:35.947Z,8.00
2022-11-22T02:46:09.100Z,8.00
2022-11-22T02:48:44.651Z,8.00
2022-11-22T02:51:16.781Z,8.00
2022-11-22T02:53:46.127Z,8.00
2022-11-22T02:56:13.712Z,8.00
2022-11-22T02:58:40.516Z,7.90
2022-11-22T03:01:07.506Z,7.90
2022-11-22T03:03:34.494Z,7.80
2022-11-22T03:06:02.720Z,8.10
2022-11-22T03:08:30.195Z,7.80
2022-11-22T03:10:59.013Z,7.80
2022-11-22T03:13:26.406Z,7.80
2022-11-22T03:15:53.388Z,7.70
2022-11-22T03:18:20.185Z,7.60
2022-11-22T03:20:47.008Z,7.60
2022-11-22T03:23:14.087Z,7.60
2022-11-22T03:25:42.653Z,9.70
2022-11-22T03:28:09.437Z,7.50
2022-11-22T03:30:41.310Z,7.50
2022-11-22T03:33:08.414Z,7.40
2022-11-22T03:35:35.256Z,7.40
2022-11-22T03:38:02.406Z,7.30
2022-11-22T03:40:29.219Z,7.30
2022-11-22T03:43:01.051Z,7.20
2022-11-22T03:45:29.280Z,7.20
2022-11-22T03:47:57.978Z,7.20
2022-11-22T03:50:25.420Z,7.10
2022-11-22T03:52:52.304Z,7.10
2022-11-22T03:55:19.396Z,7.00
2022-11-22T03:57:46.439Z,7.00
2022-11-22T04:00:15.409Z,6.90
2022-11-22T04:02:43.793Z,6.90
2022-11-22T04:05:10.894Z,6.80
2022-11-22T04:07:37.923Z,8.90
2022-11-22T04:10:06.536Z,6.70
2022-11-22T04:12:33.825Z,6.70
2022-11-22T04:15:07.027Z,6.70
2022-11-22T04:17:45.804Z,8.50
2022-11-22T04:20:42.238Z,6.60
2022-11-22T04:23:18.278Z,6.50
2022-11-22T04:25:49.015Z,6.50
2022-11-22T04:28:20.006Z,6.40
2022-11-22T04:31:06.170Z,6.40
2022-11-22T04:33:33.118Z,6.30
2022-11-22T04:35:59.908Z,6.30
2022-11-22T04:38:27.360Z,8.50
2022-11-22T04:40:54.704Z,6.30
2022-11-22T04:43:47.623Z,6.30
2022-11-22T04:46:15.986Z,6.20
2022-11-22T04:48:43.228Z,6.20
2022-11-22T04:51:33.072Z,6.20
2022-11-22T04:53:59.932Z,6.10
2022-11-22T04:56:26.774Z,6.10
2022-11-22T04:58:54.457Z,6.10
2022-11-22T05:01:21.325Z,6.10
2022-11-22T05:03:48.253Z,6.00
2022-11-22T05:06:16.127Z,6.00
2022-11-22T05:08:42.961Z,6.00
2022-11-22T05:11:09.976Z,6.00
2022-11-22T05:13:42.425Z,6.00
2022-11-22T05:16:13.669Z,5.90
2022-11-22T05:18:42.354Z,5.90
2022-11-22T05:21:13.309Z,5.90
2022-11-22T05:23:55.606Z,5.90
2022-11-22T05:26:23.388Z,5.80
2022-11-22T05:28:51.001Z,5.80
2022-11-22T05:31:23.127Z,5.80
2022-11-22T05:33:52.813Z,5.80
2022-11-22T05:36:20.651Z,5.80
2022-11-22T05:38:47.956Z,5.80
2022-11-22T05:41:17.006Z,5.70
2022-11-22T05:43:44.242Z,5.70
2022-11-22T05:46:24.662Z,5.70
2022-11-22T05:48:54.381Z,5.70
2022-11-22T05:51:30.571Z,5.70
2022-11-22T05:53:59.319Z,5.70
2022-11-22T05:56:26.279Z,5.70
2022-11-22T05:58:53.373Z,5.70
2022-11-22T06:01:23.491Z,5.70
2022-11-22T06:03:51.494Z,5.70
2022-11-22T06:06:18.703Z,5.70
2022-11-22T06:08:48.096Z,5.70
2022-11-22T06:11:21.473Z,5.70
2022-11-22T06:13:53.853Z,5.70
2022-11-22T06:16:21.269Z,5.70
2022-11-22T06:18:48.625Z,5.60
2022-11-22T06:21:20.018Z,5.60
2022-11-22T06:23:46.854Z,5.60
2022-11-22T06:26:17.425Z,5.60
2022-11-22T06:28:46.129Z,5.60
2022-11-22T06:31:19.645Z,5.60
2022-11-22T06:33:47.572Z,5.50
2022-11-22T06:36:24.349Z,5.50
2022-11-22T06:38:51.710Z,5.50
2022-11-22T06:41:22.198Z,5.50
2022-11-22T06:43:51.842Z,5.50
2022-11-22T06:46:21.673Z,5.50
2022-11-22T06:48:49.536Z,5.50
2022-11-22T06:51:31.143Z,5.40
2022-11-22T06:53:58.746Z,5.40
2022-11-22T06:56:28.530Z,5.40
2022-11-22T06:58:56.630Z,5.40
2022-11-22T07:01:29.371Z,5.40
2022-11-22T07:03:58.984Z,5.40
2022-11-22T07:06:32.782Z,5.40
2022-11-22T07:09:01.192Z,5.40
2022-11-22T07:11:30.691Z,5.50
2022-11-22T07:14:07.180Z,5.60
2022-11-22T07:16:37.286Z,5.70
2022-11-22T07:19:05.729Z,5.80
2022-11-22T07:21:32.930Z,5.90
2022-11-22T07:23:59.831Z,5.90
2022-11-22T07:26:28.499Z,6.10
2022-11-22T07:28:55.652Z,7.40
2022-11-22T07:31:22.522Z,6.40
2022-11-22T07:33:49.493Z,6.30
2022-11-22T07:36:22.090Z,6.40
2022-11-22T07:38:50.596Z,6.50
2022-11-22T07:41:19.785Z,6.60
2022-11-22T07:43:47.112Z,6.60
2022-11-22T07:46:31.012Z,6.70
2022-11-22T07:48:59.582Z,6.80
2022-11-22T07:51:27.456Z,8.80
2022-11-22T07:53:56.684Z,6.90
2022-11-22T07:56:24.238Z,7.00
2022-11-22T07:58:51.147Z,7.10
2022-11-22T08:01:21.739Z,7.10
2022-11-22T08:03:48.738Z,7.10
2022-11-22T08:06:16.515Z,9.00
2022-11-22T08:08:43.742Z,7.20
2022-11-22T08:11:12.029Z,7.20
2022-11-22T08:13:39.458Z,7.30
2022-11-22T08:16:11.637Z,7.30
2022-11-22T08:18:40.682Z,7.40
2022-11-22T08:21:11.216Z,7.50
2022-11-22T08:23:39.535Z,8.50
2022-11-22T08:26:12.603Z,7.60
2022-11-22T08:28:41.124Z,7.60
2022-11-22T08:31:16.397Z,7.70
2022-11-22T08:33:43.324Z,7.70
2022-11-22T08:36:10.943Z,7.80
2022-11-22T08:38:38.168Z,10.40
2022-11-22T08:41:07.263Z,10.60
2022-11-22T08:43:34.459Z,9.60
2022-11-22T08:46:02.042Z,8.00
2022-11-22T08:48:33.732Z,8.10
2022-11-22T08:51:08.136Z,8.10
2022-11-22T08:53:43.293Z,8.10
2022-11-22T08:56:15.691Z,8.20
2022-11-22T08:58:43.690Z,8.20
2022-11-22T09:01:14.694Z,8.30
2022-11-22T09:03:42.664Z,8.40
2022-11-22T09:09:35.868Z,8.40
2022-11-22T09:11:53.206Z,8.50
2022-11-22T09:14:20.129Z,10.10
2022-11-22T09:16:46.973Z,8.60
2022-11-22T09:19:13.763Z,10.00
2022-11-22T09:21:40.608Z,10.80
2022-11-22T09:24:07.448Z,8.70
2022-11-22T09:26:34.356Z,9.50
2022-11-22T09:29:01.278Z,8.90
2022-11-22T09:31:28.118Z,10.80
2022-11-22T09:33:54.998Z,9.00
2022-11-22T09:36:27.805Z,9.10
2022-11-22T09:38:56.284Z,9.10
2022-11-22T09:41:56.482Z,11.60
2022-11-22T09:44:44.398Z,9.30
2022-11-22T09:47:23.410Z,9.40
2022-11-22T09:50:24.164Z,11.20
2022-11-22T09:53:00.195Z,9.50
2022-11-22T09:55:49.261Z,9.60
2022-11-22T09:58:38.649Z,9.70
2022-11-22T10:01:26.806Z,9.70
2022-11-22T10:04:02.881Z,9.70
2022-11-22T10:06:36.566Z,11.60
2022-11-22T10:09:38.148Z,9.70
2022-11-22T10:12:26.463Z,9.70
2022-11-22T10:15:12.659Z,9.80
2022-11-22T10:18:04.590Z,9.70
2022-11-22T10:20:37.745Z,9.70
2022-11-22T10:23:16.838Z,9.60
2022-11-22T10:25:57.737Z,9.60
2022-11-22T10:28:42.801Z,9.70
2022-11-22T10:31:27.346Z,10.60
2022-11-22T10:34:21.368Z,9.70
2022-11-22T10:37:13.069Z,9.70
2022-11-22T10:39:58.227Z,9.80
2022-11-22T10:42:47.108Z,9.80
2022-11-22T10:45:20.035Z,9.90
2022-11-22T10:48:02.575Z,10.00
2022-11-22T10:51:14.481Z,10.10
2022-11-22T10:54:24.692Z,10.20
2022-11-22T10:57:51.694Z,10.30
2022-11-22T11:00:28.885Z,10.30
2022-11-22T11:03:23.836Z,10.40
2022-11-22T11:06:49.436Z,10.40
2022-11-22T11:10:09.048Z,10.50
2022-11-22T11:12:20.155Z,10.50
2022-11-22T11:14:54.123Z,10.50
2022-11-22T11:17:32.323Z,10.60
2022-11-22T11:20:05.801Z,10.60
2022-11-22T11:23:12.696Z,10.60
2022-11-22T11:25:42.345Z,10.60
2022-11-22T11:28:26.796Z,10.70
2022-11-22T11:31:08.991Z,12.90
2022-11-22T11:33:41.542Z,10.70
2022-11-22T11:36:21.921Z,11.70
2022-11-22T11:38:56.847Z,10.70
2022-11-22T11:41:31.490Z,10.80
2022-11-22T11:44:03.042Z,12.60
2022-11-22T11:46:51.173Z,10.70
2022-11-22T11:49:24.218Z,10.90
2022-11-22T11:52:19.153Z,10.80
2022-11-22T11:54:49.498Z,10.80
2022-11-22T11:57:27.092Z,10.80
2022-11-22T11:59:57.075Z,10.80
2022-11-22T12:02:46.704Z,10.90
2022-11-22T12:05:13.659Z,10.90
2022-11-22T12:07:48.551Z,10.90
2022-11-22T12:10:29.586Z,10.90
2022-11-22T12:13:15.500Z,11.00
2022-11-22T12:15:57.982Z,11.00
2022-11-22T12:18:36.912Z,11.00
2022-11-22T12:21:18.882Z,11.00
2022-11-22T12:27:02.325Z,11.00
2022-11-22T12:29:35.433Z,11.00
2022-11-22T12:32:14.936Z,11.10
2022-11-22T12:35:00.806Z,11.20
2022-11-22T12:37:40.195Z,11.20
2022-11-22T12:40:18.078Z,12.90
2022-11-22T12:42:54.316Z,12.30
2022-11-22T12:45:53.126Z,12.00
2022-11-22T12:48:34.905Z,11.20
2022-11-22T12:51:50.386Z,11.20
2022-11-22T12:54:30.919Z,11.20
2022-11-22T12:57:07.611Z,11.20
2022-11-22T13:00:16.284Z,11.20
2022-11-22T13:03:04.246Z,11.20
2022-11-22T13:05:40.955Z,11.20
2022-11-22T13:08:52.844Z,13.00
2022-11-22T13:11:36.395Z,11.10
2022-11-22T13:14:30.404Z,11.10
2022-11-22T13:16:58.583Z,11.10
2022-11-22T13:19:29.661Z,11.10
2022-11-22T13:22:35.663Z,11.10
2022-11-22T13:25:29.889Z,11.10
2022-11-22T13:28:01.051Z,11.10
2022-11-22T13:30:30.580Z,12.40
2022-11-22T13:33:00.778Z,11.10
2022-11-22T13:35:35.135Z,11.10
2022-11-22T13:38:14.231Z,11.10
2022-11-22T13:40:53.852Z,11.10
2022-11-22T13:43:22.699Z,11.10
2022-11-22T13:46:51.423Z,11.10
2022-11-22T13:49:49.885Z,11.10
2022-11-22T13:52:16.615Z,11.10
2022-11-22T13:55:30.546Z,11.10
2022-11-22T13:58:26.663Z,11.20
2022-11-22T14:00:56.662Z,11.00
2022-11-22T14:03:43.922Z,11.00
2022-11-22T14:06:30.496Z,10.90
2022-11-22T14:09:23.312Z,10.90
2022-11-22T14:12:11.555Z,10.80
2022-11-22T14:15:15.275Z,10.80
2022-11-22T14:18:19.321Z,10.70
2022-11-22T14:20:57.216Z,10.70
2022-11-22T14:24:02.171Z,10.70
2022-11-22T14:27:18.362Z,10.60
2022-11-22T14:30:02.823Z,10.60
2022-11-22T14:33:00.901Z,10.60
2022-11-22T14:35:59.120Z,10.60
2022-11-22T14:38:41.501Z,10.60
2022-11-22T14:41:27.010Z,10.70
2022-11-22T14:44:04.291Z,10.70
2022-11-22T14:47:05.968Z,10.70
2022-11-22T14:49:48.585Z,10.70
2022-11-22T14:52:26.495Z,10.70
2022-11-22T14:55:00.668Z,11.60
2022-11-22T14:57:32.593Z,10.70
2022-11-22T15:00:20.768Z,10.70
2022-11-22T15:03:36.548Z,10.70
2022-11-22T15:09:17.242Z,10.70
2022-11-22T15:09:57.176Z,10.60
2022-11-22T15:12:46.619Z,10.60
2022-11-22T15:57:38.544Z,10.10
2022-11-22T16:00:29.557Z,10.10
2022-11-22T16:03:06.653Z,10.10
2022-11-22T16:06:07.461Z,10.10
2022-11-22T16:08:27.832Z,10.20
2022-11-22T16:10:59.223Z,10.20
2022-11-22T16:13:32.488Z,10.10
2022-11-22T16:16:11.558Z,10.20
2022-11-22T16:18:40.488Z,10.20
2022-11-22T16:21:29.168Z,12.40
2022-11-22T16:24:18.119Z,10.40
2022-11-22T16:27:12.711Z,10.20
2022-11-22T16:29:40.418Z,10.20
2022-11-22T16:32:12.234Z,10.20
2022-11-22T16:34:44.205Z,10.20
2022-11-22T16:37:47.838Z,11.20
2022-11-22T16:40:15.782Z,10.30
2022-11-22T16:42:42.973Z,10.30
2022-11-22T16:45:20.288Z,10.30
2022-11-22T16:47:58.506Z,10.30
2022-11-22T16:50:31.362Z,12.70
2022-11-22T16:53:02.539Z,11.60
2022-11-22T16:55:29.792Z,10.30
2022-11-22T16:57:56.736Z,10.30
2022-11-22T17:00:23.667Z,10.30
2022-11-22T17:02:50.511Z,10.30
2022-11-22T17:05:17.579Z,10.40
2022-11-22T17:07:44.417Z,10.40
2022-11-22T17:10:11.370Z,12.60
2022-11-22T17:12:38.409Z,10.40
2022-11-22T17:15:06.038Z,10.40
2022-11-22T17:17:32.897Z,10.40
2022-11-22T17:19:59.780Z,10.50
2022-11-22T17:22:26.766Z,11.80
2022-11-22T17:24:53.710Z,11.80
2022-11-22T17:27:20.545Z,10.40
2022-11-22T17:29:51.294Z,12.40
2022-11-22T17:32:18.818Z,10.40
2022-11-22T17:34:45.953Z,10.40
2022-11-22T17:37:13.410Z,12.10
2022-11-22T17:39:40.645Z,11.80
2022-11-22T17:42:07.818Z,12.20
2022-11-22T17:44:34.638Z,11.30
2022-11-22T17:47:01.760Z,10.50
2022-11-22T17:49:29.084Z,10.80
2022-11-22T17:51:56.414Z,10.50
2022-11-22T17:54:23.261Z,10.50
2022-11-22T17:56:51.487Z,10.50
2022-11-22T17:59:18.260Z,10.50
2022-11-22T18:01:45.087Z,10.50
2022-11-22T18:04:11.917Z,10.50
2022-11-22T18:06:38.793Z,10.50
2022-11-22T18:09:05.671Z,10.60
2022-11-22T18:11:33.182Z,12.50
2022-11-22T18:14:00.276Z,10.60
2022-11-22T18:16:28.863Z,10.60
2022-11-22T18:18:58.071Z,10.60
2022-11-22T18:21:30.721Z,10.60
2022-11-22T18:24:01.540Z,10.60
2022-11-22T18:26:39.463Z,10.60
2022-11-22T18:31:55.270Z,12.90
2022-11-22T18:34:25.907Z,10.90
2022-11-22T18:36:55.933Z,10.60
2022-11-22T18:39:26.607Z,12.10
2022-11-22T18:41:53.579Z,10.60
2022-11-22T18:44:20.488Z,12.20
2022-11-22T18:46:48.097Z,11.90
2022-11-22T18:49:15.263Z,10.90
2022-11-22T18:51:42.212Z,10.60
2022-11-22T18:54:12.827Z,10.60
2022-11-22T18:56:40.641Z,10.60
2022-11-22T18:59:12.380Z,10.60
2022-11-22T19:01:40.560Z,12.10
2022-11-22T19:04:07.896Z,10.60
2022-11-22T19:06:34.808Z,10.60
2022-11-22T19:09:02.523Z,10.60
2022-11-22T19:11:31.967Z,12.70
2022-11-22T19:13:59.518Z,10.60
2022-11-22T19:16:29.539Z,12.00
2022-11-22T19:18:59.210Z,10.60
2022-11-22T19:21:28.492Z,10.60
2022-11-22T19:23:56.819Z,10.60
2022-11-22T19:26:27.073Z,10.60
2022-11-22T19:28:57.559Z,10.60
2022-11-22T19:31:28.753Z,10.60
2022-11-22T19:33:55.766Z,11.00
2022-11-22T19:36:30.713Z,10.70
2022-11-22T19:38:59.730Z,10.70
2022-11-22T19:41:26.766Z,10.70
2022-11-22T19:43:55.812Z,10.70
2022-11-22T19:46:26.912Z,10.70
2022-11-22T19:48:57.668Z,11.80
2022-11-22T19:51:26.645Z,10.80
2022-11-22T19:53:59.405Z,10.80
2022-11-22T19:56:30.533Z,10.80
2022-11-22T19:59:01.705Z,10.80
2022-11-22T20:01:32.080Z,10.80
2022-11-22T20:04:03.591Z,12.80
2022-11-22T20:06:31.525Z,10.60
2022-11-22T20:09:09.665Z,10.80
2022-11-22T20:11:39.592Z,10.80
2022-11-22T20:14:07.372Z,10.80
2022-11-22T20:16:34.690Z,10.80
2022-11-22T20:19:07.121Z,10.80
2022-11-22T20:21:36.464Z,10.80
2022-11-22T20:24:05.254Z,10.80
2022-11-22T20:26:33.979Z,10.80
2022-11-22T20:29:12.340Z,10.80
2022-11-22T20:31:40.369Z,10.80
2022-11-22T20:34:07.394Z,12.90
2022-11-22T20:36:35.437Z,10.80
2022-11-22T20:39:09.561Z,10.80
2022-11-22T20:41:38.874Z,10.80
2022-11-22T20:44:06.358Z,10.80
2022-11-22T20:46:37.202Z,10.80
2022-11-22T20:49:04.380Z,10.80
2022-11-22T20:51:31.254Z,10.80
2022-11-22T20:53:58.316Z,12.30
2022-11-22T20:56:26.046Z,10.80
2022-11-22T20:58:53.409Z,10.80
2022-11-22T21:01:24.082Z,10.80
2022-11-22T21:03:53.143Z,10.70
2022-11-22T21:06:22.838Z,10.80
2022-11-22T21:08:51.225Z,10.70
2022-11-22T21:11:27.662Z,10.70
2022-11-22T21:13:56.552Z,10.70
2022-11-22T21:16:26.886Z,10.80
2022-11-22T21:19:00.910Z,11.10
2022-11-22T21:21:29.808Z,10.70
2022-11-22T21:24:00.146Z,10.70
2022-11-22T21:26:27.651Z,10.70
2022-11-22T21:28:54.943Z,10.70
2022-11-22T21:31:23.511Z,12.00
2022-11-22T21:33:51.336Z,10.70
2022-11-22T21:36:19.504Z,12.50
2022-11-22T21:38:46.499Z,10.70
2022-11-22T21:44:09.187Z,10.70
2022-11-22T21:46:36.451Z,10.70
2022-11-22T21:49:03.557Z,10.70
2022-11-22T21:51:32.333Z,10.70
2022-11-22T21:54:01.333Z,10.80
2022-11-22T21:56:28.855Z,10.70
2022-11-22T21:58:56.265Z,10.80
2022-11-22T22:01:24.464Z,10.70
2022-11-22T22:03:52.403Z,13.00
2022-11-22T22:06:19.859Z,10.80
2022-11-22T22:08:46.692Z,10.80
2022-11-22T22:11:13.776Z,11.90
2022-11-22T22:13:40.678Z,10.80
2022-11-22T22:16:08.749Z,10.70
2022-11-22T22:18:37.514Z,10.80
2022-11-22T22:21:09.919Z,11.00
2022-11-22T22:23:38.884Z,10.80
2022-11-22T22:26:12.785Z,12.10
2022-11-22T22:28:40.857Z,12.80
2022-11-22T22:31:17.135Z,10.80
2022-11-22T22:33:45.537Z,10.80
2022-11-22T22:36:12.991Z,10.90
2022-11-22T22:38:40.739Z,12.10
2022-11-22T22:41:11.878Z,11.90
2022-11-22T22:43:42.366Z,10.90
2022-11-22T22:46:16.233Z,10.90
2022-11-22T22:48:44.368Z,13.10
2022-11-22T22:51:17.961Z,10.90
2022-11-22T22:53:45.872Z,10.90
2022-11-22T22:56:14.737Z,10.90
2022-11-22T22:58:42.023Z,10.90
2022-11-22T23:01:21.757Z,11.00
2022-11-22T23:03:50.677Z,11.10
2022-11-22T23:06:18.091Z,11.00
2022-11-22T23:08:49.029Z,11.00
2022-11-22T23:11:19.352Z,12.00
2022-11-22T23:13:46.377Z,11.00
2022-11-22T23:16:15.277Z,11.00
2022-11-22T23:18:44.553Z,11.50
2022-11-22T23:21:15.459Z,11.00
2022-11-22T23:23:42.466Z,11.00
2022-11-22T23:26:12.638Z,13.00
2022-11-22T23:28:39.848Z,11.90
2022-11-22T23:31:15.162Z,11.00
2022-11-22T23:33:43.910Z,11.00
2022-11-22T23:36:14.596Z,11.00
2022-11-22T23:38:42.903Z,11.00
2022-11-22T23:41:15.479Z,12.80
2022-11-22T23:43:43.684Z,11.00
2022-11-22T23:46:16.326Z,11.00
2022-11-22T23:48:46.036Z,11.00
2022-11-22T23:51:14.885Z,11.00
2022-11-22T23:53:42.293Z,11.00
2022-11-22T23:56:21.558Z,11.00
2022-11-22T23:58:50.568Z,11.00
